Time;durP1;ratioP1;P1;durP2;ratioP2;P2;SDS_P1;SDS_P2;PMS_P1;PMS_P2;Temp;Humidity;BMP_temperature;BMP_pressure;BME280_temperature;BME280_humidity;BME280_pressure;Samples;Min_cycle;Max_cycle;Signal;HPM_P1;HPM_P2
2022/05/12 00:02:23;;;;;;;3.00;2.10;;;26.40;26.40;;;;;;5050139;28;20522;-34
2022/05/12 00:04:49;;;;;;;2.47;2.00;;;26.30;26.20;;;;;;5044832;28;20224;-34
2022/05/12 00:07:15;;;;;;;2.90;2.27;;;26.30;26.00;;;;;;5033650;28;20184;-34
2022/05/12 00:09:41;;;;;;;2.83;2.50;;;26.30;26.00;;;;;;5051602;28;20178;-34
2022/05/12 00:12:07;;;;;;;3.67;2.30;;;26.40;25.90;;;;;;5051506;28;20262;-35
2022/05/12 00:14:33;;;;;;;5.20;3.13;;;26.40;26.00;;;;;;5051233;28;20524;-34
2022/05/12 00:17:00;;;;;;;4.30;2.50;;;26.40;25.80;;;;;;5051463;28;20404;-34
2022/05/12 00:19:27;;;;;;;2.57;2.20;;;26.40;25.70;;;;;;5051487;28;20499;-34
2022/05/12 00:21:54;;;;;;;4.00;2.47;;;26.40;25.70;;;;;;5051218;28;20415;-34
2022/05/12 00:24:20;;;;;;;3.57;2.30;;;26.40;25.40;;;;;;5051580;28;20514;-34
2022/05/12 00:26:46;;;;;;;2.03;1.67;;;26.30;25.30;;;;;;5051492;28;20507;-34
2022/05/12 00:29:12;;;;;;;3.77;2.60;;;26.40;25.10;;;;;;5051544;28;20260;-34
2022/05/12 00:31:40;;;;;;;2.90;2.13;;;26.40;25.20;;;;;;5051320;28;20972;-34
2022/05/12 00:34:07;;;;;;;4.30;2.63;;;26.40;25.10;;;;;;5052968;28;20459;-34
2022/05/12 00:36:34;;;;;;;4.80;2.10;;;26.40;25.00;;;;;;5054845;28;20416;-34
2022/05/12 00:39:00;;;;;;;3.20;2.23;;;26.50;25.00;;;;;;5054887;28;20411;-34
2022/05/12 00:41:26;;;;;;;3.10;2.40;;;26.50;24.70;;;;;;5054704;28;20407;-34
2022/05/12 00:43:56;;;;;;;3.03;2.10;;;26.50;24.90;;;;;;5054635;28;20784;-33
2022/05/12 00:46:36;;;;;;;2.93;2.27;;;26.50;25.10;;;;;;5055033;28;20396;-33
2022/05/12 00:49:13;;;;;;;3.63;1.80;;;26.50;24.90;;;;;;5054609;28;20836;-34
2022/05/12 00:51:55;;;;;;;2.77;2.00;;;26.40;25.00;;;;;;5054527;28;20868;-34
2022/05/12 00:54:33;;;;;;;2.97;2.07;;;26.40;25.10;;;;;;5054507;28;20955;-34
2022/05/12 00:57:02;;;;;;;8.50;2.40;;;26.40;24.70;;;;;;5054576;28;20886;-34
2022/05/12 00:59:32;;;;;;;2.60;2.10;;;26.30;25.00;;;;;;5054431;28;21173;-34
2022/05/12 01:01:59;;;;;;;3.80;2.33;;;26.30;25.10;;;;;;5054259;28;20411;-34
2022/05/12 01:04:26;;;;;;;2.60;1.83;;;26.30;25.00;;;;;;5054420;28;20526;-34
2022/05/12 01:06:52;;;;;;;5.50;2.40;;;26.30;25.00;;;;;;5054358;28;20415;-34
2022/05/12 01:09:20;;;;;;;3.57;2.13;;;26.30;25.00;;;;;;5036312;28;20415;-34
2022/05/12 01:11:48;;;;;;;2.90;2.60;;;26.30;25.00;;;;;;5054109;28;20415;-34
2022/05/12 01:14:14;;;;;;;3.00;2.10;;;26.30;25.70;;;;;;5053962;28;20494;-34
2022/05/12 01:16:45;;;;;;;4.97;2.20;;;26.20;25.20;;;;;;5048379;28;20443;-34
2022/05/12 01:19:23;;;;;;;4.40;2.60;;;26.20;25.20;;;;;;5051979;28;20418;-34
2022/05/12 01:21:50;;;;;;;3.83;2.17;;;26.20;25.30;;;;;;5054177;28;20403;-34
2022/05/12 01:24:19;;;;;;;2.67;2.00;;;26.10;25.30;;;;;;5054077;28;20427;-34
2022/05/12 01:26:45;;;;;;;3.23;2.10;;;26.20;25.30;;;;;;5054130;28;20776;-33
2022/05/12 01:29:11;;;;;;;2.50;1.80;;;26.10;25.50;;;;;;5054115;28;20411;-34
2022/05/12 01:31:38;;;;;;;5.67;2.60;;;26.10;25.40;;;;;;5053745;28;20511;-34
2022/05/12 01:34:07;;;;;;;3.87;1.93;;;26.00;25.60;;;;;;5053934;28;20459;-34
2022/05/12 01:36:33;;;;;;;2.27;2.03;;;26.00;25.50;;;;;;5053767;28;20752;-33
2022/05/12 01:38:59;;;;;;;3.07;2.20;;;25.90;25.20;;;;;;5054020;28;20502;-34
2022/05/12 01:41:26;;;;;;;2.43;1.90;;;25.90;24.90;;;;;;5053550;28;20411;-34
2022/05/12 01:43:52;;;;;;;2.57;1.87;;;25.90;25.60;;;;;;5053688;28;20428;-34
2022/05/12 01:46:18;;;;;;;3.20;1.77;;;25.80;25.30;;;;;;5053755;28;20407;-34
2022/05/12 01:48:44;;;;;;;2.80;2.00;;;25.80;25.20;;;;;;5053572;28;20764;-34
2022/05/12 01:51:10;;;;;;;2.83;1.90;;;25.80;25.40;;;;;;5053334;28;20414;-34
2022/05/12 01:53:37;;;;;;;2.87;1.90;;;25.80;25.30;;;;;;5053358;28;20459;-34
2022/05/12 01:56:05;;;;;;;2.90;2.00;;;25.80;25.30;;;;;;5053383;28;20835;-34
2022/05/12 01:58:31;;;;;;;4.47;2.63;;;25.80;25.30;;;;;;5053719;28;20415;-34
2022/05/12 02:00:57;;;;;;;3.53;2.77;;;25.70;25.30;;;;;;5053128;28;20403;-34
2022/05/12 02:03:23;;;;;;;5.07;2.60;;;25.70;25.40;;;;;;5053226;28;20492;-34
2022/05/12 02:05:49;;;;;;;2.30;1.93;;;25.70;25.50;;;;;;5053333;28;20526;-34
2022/05/12 02:08:16;;;;;;;3.50;2.50;;;25.60;25.50;;;;;;5053218;28;20404;-34
2022/05/12 02:10:47;;;;;;;3.57;2.07;;;25.60;25.60;;;;;;5052974;28;20419;-33
2022/05/12 02:13:15;;;;;;;2.20;1.97;;;25.50;25.60;;;;;;5052875;28;20462;-34
2022/05/12 02:15:42;;;;;;;3.93;2.63;;;25.50;25.60;;;;;;5051494;28;20443;-34
2022/05/12 02:18:09;;;;;;;3.90;2.23;;;25.50;25.70;;;;;;5044655;28;20416;-34
2022/05/12 02:20:35;;;;;;;2.40;1.80;;;25.50;25.80;;;;;;5052951;28;20411;-34
2022/05/12 02:23:01;;;;;;;3.30;2.50;;;25.40;25.70;;;;;;5052766;28;20570;-34
2022/05/12 02:25:26;;;;;;;2.60;1.70;;;25.40;26.00;;;;;;5052933;28;20491;-33
2022/05/12 02:27:52;;;;;;;2.30;1.77;;;25.40;25.80;;;;;;5053041;28;20178;-34
2022/05/12 02:30:30;;;;;;;2.53;1.90;;;25.30;25.80;;;;;;5052644;28;20281;-33
2022/05/12 02:32:56;;;;;;;2.70;1.97;;;25.40;25.80;;;;;;5052690;28;20168;-33
2022/05/12 02:35:22;;;;;;;5.80;2.60;;;25.40;25.80;;;;;;5052636;28;20447;-34
2022/05/12 02:37:48;;;;;;;3.70;2.13;;;25.50;25.70;;;;;;5052610;28;20419;-33
2022/05/12 02:40:18;;;;;;;3.57;2.83;;;25.50;25.70;;;;;;5052609;28;20416;-33
2022/05/12 02:42:44;;;;;;;3.70;2.90;;;25.50;25.60;;;;;;5052363;28;20404;-34
2022/05/12 02:45:11;;;;;;;2.80;2.30;;;25.50;25.60;;;;;;5052807;28;20469;-33
2022/05/12 02:47:37;;;;;;;2.83;1.80;;;25.50;25.70;;;;;;5052678;28;20407;-34
2022/05/12 02:50:03;;;;;;;3.43;1.77;;;25.50;25.80;;;;;;5052369;28;20503;-34
2022/05/12 02:52:29;;;;;;;3.70;2.57;;;25.50;25.70;;;;;;5052149;28;20199;-34
2022/05/12 02:54:55;;;;;;;2.90;1.80;;;25.50;25.70;;;;;;5052349;28;20995;-34
2022/05/12 02:57:21;;;;;;;7.87;2.43;;;25.50;25.80;;;;;;5051856;28;20269;-34
2022/05/12 02:59:46;;;;;;;3.63;2.10;;;25.50;25.80;;;;;;5052215;28;20161;-34
2022/05/12 03:02:13;;;;;;;2.77;1.97;;;25.50;25.70;;;;;;5051998;28;20410;-34
2022/05/12 03:04:38;;;;;;;3.50;2.47;;;25.50;25.80;;;;;;5052068;28;20185;-33
2022/05/12 03:07:05;;;;;;;2.33;1.97;;;25.50;26.00;;;;;;5052180;28;20400;-34
2022/05/12 03:09:30;;;;;;;3.67;2.20;;;25.40;26.00;;;;;;5052065;28;20184;-33
2022/05/12 03:11:56;;;;;;;4.30;2.47;;;25.30;26.10;;;;;;5051847;28;20404;-34
2022/05/12 03:14:22;;;;;;;2.97;2.00;;;25.30;26.20;;;;;;5051844;28;20213;-34
2022/05/12 03:16:50;;;;;;;3.70;2.30;;;25.30;26.20;;;;;;5051986;28;20169;-34
2022/05/12 03:19:16;;;;;;;2.10;1.90;;;25.30;26.20;;;;;;5051967;28;20446;-34
2022/05/12 03:21:41;;;;;;;4.10;2.63;;;25.20;26.40;;;;;;5051765;28;20989;-35
2022/05/12 03:24:09;;;;;;;3.07;1.83;;;25.20;26.40;;;;;;5052065;28;20699;-34
2022/05/12 03:26:34;;;;;;;4.23;2.37;;;25.20;27.20;;;;;;5051990;28;20559;-34
2022/05/12 03:29:00;;;;;;;2.63;2.23;;;25.10;26.50;;;;;;5051674;28;20427;-34
2022/05/12 03:31:26;;;;;;;2.30;2.10;;;25.10;26.70;;;;;;5043240;28;20165;-34
2022/05/12 03:33:51;;;;;;;2.80;2.00;;;25.10;26.70;;;;;;5051675;28;20572;-34
2022/05/12 03:36:17;;;;;;;4.43;2.53;;;25.10;26.80;;;;;;5051932;28;20629;-34
2022/05/12 03:38:43;;;;;;;3.60;2.20;;;25.20;26.60;;;;;;5051899;28;20166;-34
2022/05/12 03:41:09;;;;;;;3.10;2.30;;;25.10;26.70;;;;;;5051901;28;20165;-34
2022/05/12 03:46:19;;;;;;;3.97;2.27;;;25.10;26.70;;;;;;5052053;28;20899;-34
2022/05/12 03:48:45;;;;;;;2.63;2.07;;;25.00;26.90;;;;;;5051379;28;20427;-34
2022/05/12 03:51:12;;;;;;;2.63;1.83;;;25.00;27.00;;;;;;5043239;28;20713;-33
2022/05/12 03:53:40;;;;;;;4.40;2.03;;;25.00;27.10;;;;;;5051641;28;20220;-33
2022/05/12 03:56:07;;;;;;;3.17;2.40;;;24.90;27.00;;;;;;5051987;28;20768;-33
2022/05/12 03:58:33;;;;;;;4.60;2.27;;;25.00;27.30;;;;;;5051607;28;20494;-34
2022/05/12 04:01:00;;;;;;;4.20;1.90;;;24.90;27.30;;;;;;5051367;28;20400;-34
2022/05/12 04:03:26;;;;;;;4.80;1.80;;;24.80;27.30;;;;;;5051531;28;20793;-34
2022/05/12 04:05:54;;;;;;;2.90;2.10;;;24.90;27.60;;;;;;5051718;28;20502;-33
2022/05/12 04:08:21;;;;;;;2.73;2.40;;;24.90;27.60;;;;;;5052146;28;20404;-34
2022/05/12 04:10:48;;;;;;;3.00;2.50;;;24.90;27.50;;;;;;5055141;28;20972;-34
2022/05/12 04:13:16;;;;;;;2.80;2.20;;;24.90;28.20;;;;;;5054967;28;20785;-33
2022/05/12 04:15:42;;;;;;;3.30;2.00;;;24.90;27.70;;;;;;5055531;28;20420;-34
2022/05/12 04:18:08;;;;;;;3.50;2.30;;;25.00;27.60;;;;;;5037428;28;20435;-34
2022/05/12 04:20:36;;;;;;;2.20;1.87;;;25.00;27.60;;;;;;5055024;28;20741;-34
2022/05/12 04:23:03;;;;;;;2.70;2.03;;;25.10;28.00;;;;;;5055099;28;20942;-34
2022/05/12 04:25:29;;;;;;;4.57;2.27;;;25.00;27.80;;;;;;5055129;28;20411;-34
2022/05/12 04:27:55;;;;;;;3.10;2.10;;;25.00;27.90;;;;;;5055010;28;20823;-34
2022/05/12 04:30:24;;;;;;;3.70;2.67;;;24.90;28.10;;;;;;5055004;28;20414;-34
2022/05/12 04:32:55;;;;;;;2.40;1.70;;;25.00;28.10;;;;;;5047902;28;20201;-34
2022/05/12 04:35:24;;;;;;;3.50;3.17;;;25.00;28.00;;;;;;5054593;28;20942;-33
2022/05/12 04:37:56;;;;;;;3.00;2.63;;;25.00;28.00;;;;;;5054877;28;20404;-34
2022/05/12 04:40:29;;;;;;;3.30;2.23;;;25.00;28.00;;;;;;5054698;28;20649;-34
2022/05/12 04:42:57;;;;;;;3.43;2.00;;;25.10;28.30;;;;;;5054961;28;21009;-33
2022/05/12 04:45:25;;;;;;;3.57;1.83;;;25.20;28.40;;;;;;5054733;28;20416;-34
2022/05/12 04:47:52;;;;;;;4.70;2.63;;;25.10;28.40;;;;;;5054829;28;20400;-33
2022/05/12 04:50:20;;;;;;;2.67;2.20;;;25.10;28.60;;;;;;5054520;28;20844;-34
2022/05/12 04:52:47;;;;;;;2.60;1.70;;;25.10;28.90;;;;;;5054363;28;20896;-34
2022/05/12 04:55:14;;;;;;;3.70;2.30;;;25.10;29.30;;;;;;5054493;28;21002;-33
2022/05/12 04:57:42;;;;;;;4.63;2.27;;;25.10;29.00;;;;;;5054453;28;20400;-34
2022/05/12 05:00:13;;;;;;;3.30;2.47;;;25.00;29.80;;;;;;5054404;28;20503;-34
2022/05/12 05:02:39;;;;;;;3.50;2.10;;;25.00;29.40;;;;;;5054196;28;20388;-34
2022/05/12 05:05:06;;;;;;;2.10;1.57;;;25.00;29.80;;;;;;5054511;28;20403;-34
2022/05/12 05:07:32;;;;;;;2.57;2.23;;;25.00;29.60;;;;;;5054261;28;20411;-34
2022/05/12 05:09:58;;;;;;;2.87;2.20;;;25.00;30.40;;;;;;5054312;28;20407;-34
2022/05/12 05:12:23;;;;;;;4.40;2.63;;;24.90;30.00;;;;;;5053961;28;20408;-34
2022/05/12 05:14:49;;;;;;;2.73;1.97;;;24.90;30.20;;;;;;5053687;28;20201;-33
2022/05/12 05:17:15;;;;;;;3.20;2.50;;;24.80;31.10;;;;;;5045832;28;20170;-33
2022/05/12 05:19:41;;;;;;;4.13;2.67;;;24.70;31.00;;;;;;5053714;28;20236;-33
2022/05/12 05:22:07;;;;;;;2.97;1.57;;;24.60;31.10;;;;;;5053739;28;20251;-33
2022/05/12 05:24:34;;;;;;;3.63;1.47;;;24.50;31.40;;;;;;5053970;28;20438;-34
2022/05/12 05:27:00;;;;;;;2.80;1.60;;;24.40;31.60;;;;;;5053993;28;20503;-34
2022/05/12 05:29:26;;;;;;;2.57;1.47;;;24.30;32.40;;;;;;5054103;28;20408;-33
2022/05/12 05:31:52;;;;;;;3.83;2.03;;;24.20;32.40;;;;;;5053691;28;20418;-34
2022/05/12 05:34:18;;;;;;;3.83;1.40;;;24.10;32.70;;;;;;5053745;28;20878;-34
2022/05/12 05:36:45;;;;;;;2.70;1.70;;;24.10;32.40;;;;;;5053755;28;20415;-34
2022/05/12 05:39:21;;;;;;;4.67;1.33;;;24.10;32.40;;;;;;5054232;28;20404;-34
2022/05/12 05:41:48;;;;;;;4.10;1.73;;;24.10;32.70;;;;;;5053372;28;20445;-34
2022/05/12 05:44:14;;;;;;;3.90;1.93;;;24.10;32.80;;;;;;5053602;28;20485;-34
2022/05/12 05:46:39;;;;;;;2.90;2.00;;;24.00;33.00;;;;;;5053646;28;20415;-33
2022/05/12 05:49:05;;;;;;;2.80;1.57;;;23.90;33.60;;;;;;5053455;28;20253;-34
2022/05/12 05:54:15;;;;;;;3.63;1.87;;;23.80;33.40;;;;;;5053603;28;20223;-33
2022/05/12 05:56:41;;;;;;;5.83;2.20;;;23.80;33.50;;;;;;5053463;28;20448;-33
2022/05/12 05:59:06;;;;;;;5.03;2.23;;;23.90;33.40;;;;;;5053372;28;20165;-33
2022/05/12 06:01:32;;;;;;;3.00;1.67;;;23.90;33.10;;;;;;5052998;28;20175;-33
2022/05/12 06:03:58;;;;;;;3.77;1.60;;;23.90;33.80;;;;;;5053228;28;20197;-34
2022/05/12 06:06:25;;;;;;;2.70;1.70;;;23.90;33.40;;;;;;5053075;28;20174;-33
2022/05/12 06:08:51;;;;;;;2.33;1.33;;;23.80;34.20;;;;;;5046442;28;20174;-33
2022/05/12 06:11:17;;;;;;;4.77;2.30;;;23.70;33.90;;;;;;5051520;28;20758;-34
2022/05/12 06:13:44;;;;;;;2.30;1.50;;;23.70;33.70;;;;;;5053128;28;20470;-34
2022/05/12 06:16:10;;;;;;;4.00;2.30;;;23.70;34.10;;;;;;5053077;28;20173;-34
2022/05/12 06:18:36;;;;;;;3.40;1.20;;;23.70;33.50;;;;;;5053053;28;20939;-33
2022/05/12 06:21:04;;;;;;;2.80;1.50;;;23.70;34.10;;;;;;5052986;28;20173;-34
2022/05/12 06:23:30;;;;;;;4.43;1.70;;;23.60;33.80;;;;;;5053092;28;20477;-34
2022/05/12 06:25:56;;;;;;;2.00;1.50;;;23.50;33.60;;;;;;5035247;28;20412;-34
2022/05/12 06:28:22;;;;;;;4.73;1.63;;;23.50;33.70;;;;;;5052959;28;20252;-34
2022/05/12 06:30:48;;;;;;;5.97;1.90;;;23.60;34.10;;;;;;5051956;28;20428;-33
2022/05/12 06:33:18;;;;;;;6.80;1.60;;;23.60;33.70;;;;;;5052539;28;20649;-34
2022/05/12 06:35:44;;;;;;;3.00;1.50;;;23.70;33.70;;;;;;5052742;28;20185;-34
2022/05/12 06:38:11;;;;;;;2.40;1.73;;;23.70;33.70;;;;;;5053021;28;20758;-34
2022/05/12 06:40:37;;;;;;;2.63;1.57;;;23.70;33.40;;;;;;5034691;28;20176;-34
2022/05/12 06:43:04;;;;;;;2.33;1.60;;;23.70;33.30;;;;;;5052841;28;20458;-34
2022/05/12 06:45:30;;;;;;;2.00;1.20;;;23.70;33.00;;;;;;5053118;28;21050;-33
2022/05/12 06:47:56;;;;;;;2.93;1.53;;;23.70;33.80;;;;;;5052277;28;20884;-33
2022/05/12 06:50:28;;;;;;;2.80;1.70;;;23.60;33.00;;;;;;5048198;28;20276;-34
2022/05/12 06:52:54;;;;;;;3.20;1.40;;;23.60;33.00;;;;;;5048018;28;20404;-34
2022/05/12 06:55:21;;;;;;;1.83;1.20;;;23.50;33.10;;;;;;5052613;28;20462;-33
2022/05/12 06:57:47;;;;;;;2.83;1.20;;;23.40;33.10;;;;;;5052528;28;20407;-33
2022/05/12 07:00:16;;;;;;;2.27;1.20;;;23.50;32.50;;;;;;5052231;28;20403;-33
2022/05/12 07:02:47;;;;;;;2.30;1.30;;;23.40;31.70;;;;;;5034740;28;20395;-34
2022/05/12 07:05:15;;;;;;;1.60;0.90;;;23.30;31.90;;;;;;5052717;28;20812;-33
2022/05/12 07:07:42;;;;;;;2.30;1.30;;;23.30;32.10;;;;;;5052531;28;20479;-33
2022/05/12 07:10:09;;;;;;;2.37;1.07;;;23.40;31.90;;;;;;5051583;28;20431;-33
2022/05/12 07:12:34;;;;;;;2.27;1.17;;;23.50;32.00;;;;;;5043416;28;20415;-33
2022/05/12 07:15:00;;;;;;;4.10;1.40;;;23.60;31.80;;;;;;5051934;28;20454;-33
2022/05/12 07:17:27;;;;;;;2.10;0.87;;;23.60;31.30;;;;;;5052427;28;20180;-33
2022/05/12 07:26:34;;;;;;;3.80;1.30;;;23.60;31.60;;;;;;5052153;28;20412;-33
2022/05/12 07:28:11;;;;;;;2.40;1.07;;;23.70;31.70;;;;;;5052314;28;20406;-33
2022/05/12 07:31:00;;;;;;;3.80;0.87;;;23.70;31.80;;;;;;5051761;28;20408;-33
2022/05/12 07:33:22;;;;;;;1.80;0.70;;;23.70;32.30;;;;;;5051594;28;20196;-33
2022/05/12 07:35:48;;;;;;;2.77;1.10;;;23.70;32.10;;;;;;5051930;28;20434;-33
2022/05/12 07:38:13;;;;;;;2.07;1.27;;;23.90;32.40;;;;;;5051846;28;20625;-33
2022/05/12 07:40:39;;;;;;;2.13;1.23;;;24.00;31.90;;;;;;5051630;28;20177;-32
2022/05/12 07:43:05;;;;;;;4.30;0.70;;;24.20;31.50;;;;;;5053668;28;20197;-33
2022/05/12 07:45:31;;;;;;;6.70;0.93;;;24.20;31.20;;;;;;5055926;28;20176;-33
2022/05/12 07:47:56;;;;;;;3.10;1.30;;;24.40;31.70;;;;;;5055848;28;20169;-33
2022/05/12 07:50:23;;;;;;;1.87;0.90;;;24.70;31.80;;;;;;5037808;28;20172;-33
2022/05/12 07:52:49;;;;;;;1.97;1.37;;;24.90;30.80;;;;;;5055944;28;20176;-33
2022/05/12 07:55:14;;;;;;;1.60;0.90;;;25.00;30.40;;;;;;5055627;28;20451;-33
2022/05/12 07:57:41;;;;;;;2.23;1.07;;;25.20;30.30;;;;;;5055651;28;20180;-33
2022/05/12 08:00:08;;;;;;;1.90;1.10;;;25.20;30.10;;;;;;5055909;28;20192;-33
2022/05/12 08:02:33;;;;;;;2.20;1.00;;;25.30;29.90;;;;;;5055191;28;20400;-33
2022/05/12 08:04:59;;;;;;;1.53;0.73;;;25.40;29.80;;;;;;5055471;28;20454;-33
2022/05/12 08:07:26;;;;;;;1.50;0.80;;;25.50;28.90;;;;;;5055408;28;20267;-34
2022/05/12 08:09:52;;;;;;;1.70;0.70;;;25.50;28.30;;;;;;5055481;28;20458;-33
2022/05/12 08:12:17;;;;;;;2.10;0.90;;;25.50;28.40;;;;;;5055311;28;20821;-33
2022/05/12 08:14:43;;;;;;;1.40;0.50;;;25.50;28.10;;;;;;5054881;28;20612;-32
2022/05/12 08:17:09;;;;;;;2.33;1.20;;;25.60;28.50;;;;;;5047112;28;20177;-33
2022/05/12 08:19:35;;;;;;;1.40;0.60;;;25.70;29.10;;;;;;5055025;28;20173;-34
2022/05/12 08:22:01;;;;;;;1.57;0.87;;;25.90;28.90;;;;;;5046852;28;20400;-33
2022/05/12 08:24:26;;;;;;;2.20;1.20;;;25.90;27.00;;;;;;5055115;28;20431;-33
2022/05/12 08:26:52;;;;;;;1.50;0.80;;;25.90;27.90;;;;;;5055199;28;20269;-33
2022/05/12 08:29:19;;;;;;;1.50;0.63;;;26.00;28.20;;;;;;5055206;28;20201;-33
2022/05/12 08:31:45;;;;;;;3.57;1.90;;;26.10;27.30;;;;;;5055110;28;20188;-33
2022/05/12 08:34:10;;;;;;;2.20;0.67;;;26.20;27.00;;;;;;5054894;28;20455;-33
2022/05/12 08:36:36;;;;;;;3.23;1.23;;;26.30;25.90;;;;;;5054625;28;20176;-33
2022/05/12 08:39:03;;;;;;;2.33;1.10;;;26.20;27.30;;;;;;5055071;28;20169;-33
2022/05/12 08:41:37;;;;;;;3.20;0.70;;;26.30;26.80;;;;;;5054725;28;20408;-33
2022/05/12 08:44:20;;;;;;;7.00;1.20;;;26.40;26.20;;;;;;5036767;28;20442;-33
2022/05/12 08:46:56;;;;;;;2.33;0.90;;;26.40;26.50;;;;;;5054849;28;20938;-33
2022/05/12 08:49:32;;;;;;;1.60;0.90;;;26.50;26.50;;;;;;5054840;28;20400;-33
2022/05/12 08:52:22;;;;;;;1.50;0.87;;;26.60;26.40;;;;;;5028699;28;20859;-33
2022/05/12 08:55:06;;;;;;;2.20;1.20;;;26.80;26.80;;;;;;5034207;28;20495;-34
2022/05/12 08:57:55;;;;;;;3.70;1.00;;;27.00;26.20;;;;;;5034849;28;20400;-33
2022/05/12 09:00:22;;;;;;;1.70;1.00;;;27.00;26.30;;;;;;5034624;28;20403;-34
2022/05/12 09:03:15;;;;;;;2.57;0.93;;;27.00;25.30;;;;;;5034410;28;20491;-33
2022/05/12 09:05:48;;;;;;;1.80;1.20;;;27.10;26.50;;;;;;5034680;28;20491;-32
2022/05/12 09:08:26;;;;;;;3.60;1.20;;;27.10;26.30;;;;;;5034471;28;20972;-33
2022/05/12 09:11:01;;;;;;;1.53;0.60;;;27.20;26.40;;;;;;5034622;28;20399;-33
2022/05/12 09:13:33;;;;;;;1.63;0.87;;;27.20;25.90;;;;;;5034289;28;20452;-33
2022/05/12 09:16:24;;;;;;;1.70;1.00;;;27.40;25.00;;;;;;5045192;28;20435;-33
2022/05/12 09:18:53;;;;;;;3.53;0.70;;;27.40;25.20;;;;;;5039235;28;20409;-33
2022/05/12 09:21:28;;;;;;;2.17;0.93;;;27.40;25.80;;;;;;5034273;28;20409;-33
2022/05/12 09:23:56;;;;;;;2.87;0.80;;;27.50;24.10;;;;;;5034098;28;20425;-33
2022/05/12 09:26:44;;;;;;;1.63;1.00;;;27.50;23.80;;;;;;5034460;28;20401;-33
2022/05/12 09:29:29;;;;;;;1.87;0.80;;;27.40;24.50;;;;;;5034076;28;20504;-33
2022/05/12 09:32:03;;;;;;;1.80;0.73;;;27.40;25.00;;;;;;5033767;28;20439;-33
2022/05/12 09:34:38;;;;;;;1.40;0.70;;;27.20;25.40;;;;;;5033836;28;20444;-33
2022/05/12 09:37:28;;;;;;;2.90;0.83;;;27.10;24.80;;;;;;5033853;28;20986;-33
2022/05/12 09:39:57;;;;;;;1.40;0.67;;;27.10;24.40;;;;;;5024048;28;20421;-33
2022/05/12 09:42:29;;;;;;;1.50;0.60;;;27.30;24.20;;;;;;5033605;28;20401;-33
2022/05/12 09:45:02;;;;;;;1.50;0.53;;;27.30;22.70;;;;;;5033725;28;20429;-33
2022/05/12 09:47:29;;;;;;;2.70;0.83;;;27.30;21.00;;;;;;5033904;28;20773;-33
2022/05/12 09:50:26;;;;;;;2.40;0.90;;;27.30;22.20;;;;;;5033959;28;20439;-33
2022/05/12 09:52:54;;;;;;;1.30;0.60;;;27.40;21.80;;;;;;5017321;28;20478;-34
2022/05/12 09:55:24;;;;;;;1.60;0.73;;;27.60;22.10;;;;;;5033816;28;20452;-33
2022/05/12 09:58:05;;;;;;;1.50;0.80;;;27.70;21.20;;;;;;5033914;28;20390;-33
2022/05/12 10:00:30;;;;;;;1.77;1.00;;;27.70;20.30;;;;;;5033230;28;20479;-33
2022/05/12 10:09:08;;;;;;;1.90;0.90;;;27.50;21.90;;;;;;5033672;28;20403;-33
2022/05/12 10:11:39;;;;;;;2.90;1.23;;;27.70;22.00;;;;;;5033082;28;20405;-33
2022/05/12 10:14:06;;;;;;;1.47;0.70;;;27.70;21.70;;;;;;5033069;28;20470;-33
2022/05/12 10:16:33;;;;;;;1.50;0.70;;;27.90;22.30;;;;;;5033086;28;20416;-33
2022/05/12 10:19:04;;;;;;;1.57;0.70;;;28.10;23.10;;;;;;5026701;28;20431;-33
2022/05/12 10:21:34;;;;;;;2.30;0.80;;;28.20;22.60;;;;;;5040549;28;20766;-33
2022/05/12 10:24:09;;;;;;;1.87;0.90;;;28.30;22.00;;;;;;5032964;28;20805;-34
2022/05/12 10:26:41;;;;;;;1.60;0.80;;;28.30;20.90;;;;;;5032987;28;20503;-33
2022/05/12 10:29:26;;;;;;;2.30;1.10;;;28.30;22.00;;;;;;5032996;28;20792;-33
2022/05/12 10:32:09;;;;;;;1.30;0.60;;;28.10;20.00;;;;;;5032928;28;20508;-33
2022/05/12 10:34:43;;;;;;;1.80;0.97;;;27.70;19.80;;;;;;5032758;28;20452;-33
2022/05/12 10:37:31;;;;;;;2.53;1.10;;;27.50;20.70;;;;;;5032833;28;20384;-33
2022/05/12 10:40:12;;;;;;;1.80;0.80;;;27.50;22.50;;;;;;5015016;28;20419;-33
2022/05/12 10:42:48;;;;;;;2.53;1.60;;;27.60;21.70;;;;;;5032452;28;21099;-33
2022/05/12 10:45:34;;;;;;;2.07;0.73;;;27.80;22.30;;;;;;5032911;28;20396;-34
2022/05/12 10:48:15;;;;;;;1.70;0.70;;;28.10;22.50;;;;;;5032950;28;20393;-33
2022/05/12 10:51:01;;;;;;;1.60;0.70;;;28.20;20.30;;;;;;5032845;28;20412;-33
2022/05/12 10:53:49;;;;;;;1.70;0.77;;;28.20;21.70;;;;;;5032407;28;20424;-33
2022/05/12 10:56:42;;;;;;;2.07;0.80;;;28.50;22.20;;;;;;5032651;28;20397;-33
2022/05/12 10:59:35;;;;;;;3.10;0.97;;;28.70;20.80;;;;;;5032361;28;20754;-33
2022/05/12 11:02:08;;;;;;;2.93;1.10;;;28.70;20.80;;;;;;5032243;28;20397;-33
2022/05/12 11:04:45;;;;;;;2.13;0.70;;;28.70;20.40;;;;;;5032315;28;20452;-33
2022/05/12 11:07:39;;;;;;;1.53;0.87;;;28.70;20.30;;;;;;5032448;28;20423;-34
2022/05/12 11:10:08;;;;;;;3.77;1.50;;;28.80;20.40;;;;;;5032222;28;20432;-33
2022/05/12 11:12:43;;;;;;;1.70;1.07;;;28.50;20.00;;;;;;5031997;28;20405;-33
2022/05/12 11:15:18;;;;;;;1.87;0.63;;;28.40;19.80;;;;;;5032206;28;20456;-33
2022/05/12 11:18:05;;;;;;;1.60;0.90;;;28.40;20.60;;;;;;5031908;28;20936;-33
2022/05/12 11:20:32;;;;;;;1.60;0.90;;;28.60;21.00;;;;;;5032602;28;20413;-33
2022/05/12 11:23:12;;;;;;;1.60;0.70;;;28.70;20.20;;;;;;5032208;28;20401;-33
2022/05/12 11:25:53;;;;;;;1.70;0.80;;;28.60;20.90;;;;;;5032141;28;20800;-33
2022/05/12 11:31:49;;;;;;;1.80;0.97;;;28.70;20.90;;;;;;5032005;28;20385;-33
2022/05/12 11:34:19;;;;;;;1.73;0.70;;;28.60;19.70;;;;;;5031827;28;20491;-33
2022/05/12 11:36:48;;;;;;;1.80;1.00;;;28.50;19.70;;;;;;5031952;28;20412;-33
2022/05/12 11:39:37;;;;;;;1.60;0.80;;;28.30;20.40;;;;;;5031865;28;20912;-33
2022/05/12 11:42:20;;;;;;;1.70;1.00;;;28.30;21.10;;;;;;5031759;28;20408;-33
2022/05/12 11:45:02;;;;;;;1.50;0.90;;;28.30;21.20;;;;;;5031794;28;20436;-33
2022/05/12 11:47:53;;;;;;;2.37;0.97;;;28.50;21.30;;;;;;5031880;28;20393;-33
2022/05/12 11:50:19;;;;;;;2.87;0.90;;;28.50;20.70;;;;;;5031763;28;20404;-33
2022/05/12 11:53:03;;;;;;;2.73;0.93;;;28.50;20.90;;;;;;5031595;28;20409;-33
2022/05/12 11:56:06;;;;;;;1.90;1.00;;;28.50;21.60;;;;;;5031850;28;20209;-33
2022/05/12 11:58:40;;;;;;;1.50;0.80;;;28.70;20.20;;;;;;5031994;28;20416;-33
2022/05/12 12:01:34;;;;;;;1.87;0.70;;;28.80;20.50;;;;;;5031634;28;20407;-33
2022/05/12 12:04:03;;;;;;;1.80;0.90;;;28.90;20.30;;;;;;5031276;28;20462;-33
2022/05/12 12:06:51;;;;;;;1.70;0.90;;;28.80;20.00;;;;;;5031756;28;20451;-34
2022/05/12 12:09:48;;;;;;;1.70;0.83;;;28.90;20.40;;;;;;5032124;28;20408;-33
2022/05/12 12:12:39;;;;;;;1.90;0.97;;;28.90;19.90;;;;;;5031351;28;20737;-33
2022/05/12 12:15:30;;;;;;;1.60;0.70;;;28.90;21.00;;;;;;5031239;28;20547;-33
2022/05/12 12:17:57;;;;;;;2.00;1.00;;;29.20;21.30;;;;;;5019598;28;20785;-33
2022/05/12 12:20:31;;;;;;;2.00;1.10;;;29.40;21.80;;;;;;5042876;28;20408;-33
2022/05/12 12:23:29;;;;;;;1.70;0.80;;;29.70;21.40;;;;;;5051389;28;20393;-33
2022/05/12 12:26:28;;;;;;;6.30;1.00;;;29.80;19.70;;;;;;5051537;28;20499;-33
2022/05/12 12:29:08;;;;;;;1.60;0.70;;;29.80;20.20;;;;;;5033682;28;20407;-33
2022/05/12 12:31:45;;;;;;;2.27;0.87;;;29.90;20.80;;;;;;5054793;28;20884;-33
2022/05/12 12:34:22;;;;;;;3.10;1.33;;;30.10;21.40;;;;;;5055052;28;20463;-33
2022/05/12 12:36:57;;;;;;;1.87;0.90;;;30.30;20.60;;;;;;5054996;28;20400;-33
2022/05/12 12:39:41;;;;;;;2.13;0.80;;;30.40;19.40;;;;;;5054958;28;20413;-33
2022/05/12 12:42:33;;;;;;;2.97;1.07;;;30.10;19.50;;;;;;5054863;28;20399;-34
2022/05/12 12:45:09;;;;;;;2.77;1.10;;;30.20;20.30;;;;;;5054801;28;20424;-33
2022/05/12 12:47:44;;;;;;;5.50;1.00;;;30.10;20.00;;;;;;5055064;28;20398;-33
2022/05/12 12:50:42;;;;;;;2.17;1.17;;;29.60;19.40;;;;;;5054924;28;20461;-33
2022/05/12 12:56:36;;;;;;;2.37;1.50;;;30.20;19.70;;;;;;5054915;28;20407;-33
2022/05/12 12:59:15;;;;;;;2.47;1.03;;;30.20;18.60;;;;;;5054599;28;20399;-34
2022/05/12 13:01:53;;;;;;;17.13;1.20;;;30.10;19.70;;;;;;5054175;28;20733;-33
2022/05/12 13:04:23;;;;;;;2.00;0.87;;;30.00;19.60;;;;;;5054618;28;20479;-33
2022/05/12 13:06:56;;;;;;;2.60;1.03;;;30.20;20.10;;;;;;5054513;28;20403;-34
2022/05/12 13:09:30;;;;;;;1.70;0.70;;;30.30;19.30;;;;;;5054045;28;20409;-33
2022/05/12 13:12:13;;;;;;;1.70;0.70;;;30.40;19.00;;;;;;5028647;28;20472;-33
2022/05/12 13:14:42;;;;;;;3.20;0.80;;;30.40;19.30;;;;;;5054026;28;20527;-33
2022/05/12 13:17:28;;;;;;;2.97;1.00;;;30.60;19.90;;;;;;5054215;28;20423;-34
2022/05/12 13:19:58;;;;;;;1.73;0.80;;;30.80;18.00;;;;;;5054346;28;20433;-33
2022/05/12 13:22:53;;;;;;;1.60;0.73;;;30.80;18.10;;;;;;5050096;28;20435;-33
2022/05/12 13:25:26;;;;;;;1.30;0.50;;;30.70;18.10;;;;;;5053584;28;20444;-33
2022/05/12 13:27:53;;;;;;;2.00;0.77;;;30.40;17.70;;;;;;5054576;28;20412;-33
2022/05/12 13:30:25;;;;;;;1.80;0.60;;;30.00;18.10;;;;;;5054113;28;20437;-33
2022/05/12 13:32:54;;;;;;;1.40;0.60;;;29.70;18.20;;;;;;5054469;28;20387;-34